createdAt,value
2022-08-21T00:00:50.245Z,15.18
2022-08-21T00:03:18.915Z,15.23
2022-08-21T00:05:51.530Z,15.26
2022-08-21T00:08:20.905Z,15.16
2022-08-21T00:10:53.651Z,15.13
2022-08-21T00:13:22.777Z,15.14
2022-08-21T00:15:54.045Z,15.13
2022-08-21T00:18:26.782Z,15.06
2022-08-21T00:20:58.309Z,15.03
2022-08-21T00:23:29.148Z,15.06
2022-08-21T00:25:58.888Z,15.02
2022-08-21T00:28:36.277Z,14.99
2022-08-21T00:31:05.371Z,14.98
2022-08-21T00:33:34.409Z,14.95
2022-08-21T00:36:03.484Z,14.94
2022-08-21T00:38:32.755Z,14.95
2022-08-21T00:41:13.450Z,14.91
2022-08-21T00:43:53.344Z,14.93
2022-08-21T00:46:27.444Z,14.95
2022-08-21T00:48:58.950Z,14.86
2022-08-21T00:51:33.085Z,14.86
2022-08-21T00:54:12.952Z,14.93
2022-08-21T00:56:50.874Z,14.89
2022-08-21T00:59:22.616Z,14.97
2022-08-21T01:01:53.215Z,14.97
2022-08-21T01:04:24.771Z,14.93
2022-08-21T01:06:53.567Z,14.86
2022-08-21T01:09:22.443Z,14.88
2022-08-21T01:11:59.710Z,14.83
2022-08-21T01:14:29.587Z,14.81
2022-08-21T01:16:58.927Z,14.78
2022-08-21T01:19:29.927Z,14.67
2022-08-21T01:22:00.834Z,14.60
2022-08-21T01:24:29.975Z,14.59
2022-08-21T01:27:02.504Z,14.60
2022-08-21T01:29:35.621Z,14.65
2022-08-21T01:32:08.913Z,14.60
2022-08-21T01:34:41.525Z,14.66
2022-08-21T01:37:13.803Z,14.64
2022-08-21T01:39:43.163Z,14.54
2022-08-21T01:42:16.320Z,14.56
2022-08-21T01:44:44.712Z,14.47
2022-08-21T01:47:20.918Z,14.54
2022-08-21T01:49:49.341Z,14.50
2022-08-21T01:52:20.392Z,14.52
2022-08-21T01:54:55.482Z,14.55
2022-08-21T01:57:26.006Z,14.52
2022-08-21T01:59:56.655Z,14.51
2022-08-21T02:02:25.291Z,14.49
2022-08-21T02:04:53.777Z,14.49
2022-08-21T02:07:25.715Z,14.40
2022-08-21T02:09:54.018Z,14.40
2022-08-21T02:12:26.898Z,14.49
2022-08-21T02:14:57.962Z,14.40
2022-08-21T02:17:26.307Z,14.36
2022-08-21T02:19:54.625Z,14.39
2022-08-21T02:22:24.370Z,14.33
2022-08-21T02:24:54.457Z,14.33
2022-08-21T02:27:26.679Z,14.42
2022-08-21T02:29:58.789Z,14.38
2022-08-21T02:32:27.840Z,14.37
2022-08-21T02:34:56.482Z,14.34
2022-08-21T02:37:26.933Z,14.40
2022-08-21T02:39:55.420Z,14.28
2022-08-21T02:42:23.977Z,14.40
2022-08-21T02:44:52.330Z,14.39
2022-08-21T02:47:21.198Z,14.25
2022-08-21T02:49:54.001Z,14.35
2022-08-21T02:52:22.890Z,14.20
2022-08-21T02:54:53.353Z,14.24
2022-08-21T02:57:22.775Z,14.24
2022-08-21T02:59:51.088Z,14.25
2022-08-21T03:02:22.526Z,14.25
2022-08-21T03:04:52.300Z,14.22
2022-08-21T03:07:20.663Z,14.24
2022-08-21T03:09:55.721Z,14.22
2022-08-21T03:12:27.889Z,14.15
2022-08-21T03:14:59.175Z,14.14
2022-08-21T03:17:30.798Z,14.19
2022-08-21T03:20:03.991Z,14.08
2022-08-21T03:22:33.130Z,14.08
2022-08-21T03:25:02.144Z,14.00
2022-08-21T03:27:37.509Z,14.04
2022-08-21T03:30:10.696Z,13.99
2022-08-21T03:32:39.305Z,14.07
2022-08-21T03:35:08.263Z,14.12
2022-08-21T03:37:36.823Z,14.14
2022-08-21T03:40:07.145Z,14.13
2022-08-21T03:42:40.354Z,14.14
2022-08-21T03:45:10.350Z,14.20
2022-08-21T03:47:41.448Z,14.18
2022-08-21T03:50:12.395Z,14.10
2022-08-21T03:52:40.747Z,14.10
2022-08-21T03:55:09.291Z,14.10
2022-08-21T03:57:38.927Z,14.08
2022-08-21T04:00:13.727Z,14.05
2022-08-21T04:02:43.157Z,14.07
2022-08-21T04:05:13.243Z,14.05
2022-08-21T04:07:42.058Z,13.98
2022-08-21T04:10:10.969Z,14.05
2022-08-21T04:12:40.617Z,14.00
2022-08-21T04:15:10.884Z,13.96
2022-08-21T04:17:42.015Z,13.97
2022-08-21T04:20:19.515Z,13.98
2022-08-21T04:22:51.629Z,13.91
2022-08-21T04:25:21.796Z,13.95
2022-08-21T04:27:52.203Z,13.85
2022-08-21T04:30:21.552Z,13.82
2022-08-21T04:32:58.911Z,13.89
2022-08-21T04:35:32.644Z,13.82
2022-08-21T04:38:01.032Z,13.85
2022-08-21T04:40:30.088Z,13.93
2022-08-21T04:43:03.059Z,13.90
2022-08-21T04:45:36.196Z,13.95
2022-08-21T04:48:11.987Z,13.95
2022-08-21T04:50:45.280Z,13.88
2022-08-21T04:53:18.021Z,13.95
2022-08-21T04:55:56.949Z,13.92
2022-08-21T04:58:28.410Z,14.05
2022-08-21T05:00:59.968Z,14.06
2022-08-21T05:03:29.777Z,14.01
2022-08-21T05:05:58.847Z,14.01
2022-08-21T05:08:28.855Z,14.14
2022-08-21T05:11:00.494Z,14.10
2022-08-21T05:13:33.386Z,14.17
2022-08-21T05:16:01.914Z,14.19
2022-08-21T05:18:30.454Z,14.29
2022-08-21T05:20:58.711Z,14.28
2022-08-21T05:23:26.986Z,14.30
2022-08-21T05:25:56.150Z,14.29
2022-08-21T05:28:24.563Z,14.41
2022-08-21T05:30:56.601Z,14.47
2022-08-21T05:33:25.042Z,14.54
2022-08-21T05:35:56.995Z,14.58
2022-08-21T05:38:26.032Z,14.66
2022-08-21T05:40:54.976Z,14.69
2022-08-21T05:43:27.026Z,14.70
2022-08-21T05:46:00.110Z,14.77
2022-08-21T05:48:28.390Z,14.79
2022-08-21T05:50:58.783Z,14.88
2022-08-21T05:53:30.214Z,14.94
2022-08-21T05:55:58.582Z,14.93
2022-08-21T05:58:26.983Z,15.11
2022-08-21T06:00:56.734Z,15.17
2022-08-21T06:03:30.078Z,15.21
2022-08-21T06:05:59.508Z,15.28
2022-08-21T06:08:29.926Z,15.29
2022-08-21T06:11:01.077Z,15.48
2022-08-21T06:13:30.339Z,15.55
2022-08-21T06:16:09.626Z,15.54
2022-08-21T06:18:38.730Z,15.65
2022-08-21T06:21:08.087Z,15.80
2022-08-21T06:23:38.020Z,15.82
2022-08-21T06:26:10.768Z,15.89
2022-08-21T06:28:41.626Z,16.06
2022-08-21T06:31:21.112Z,16.15
2022-08-21T06:33:50.038Z,16.14
2022-08-21T06:36:18.766Z,16.17
2022-08-21T06:38:51.151Z,16.14
2022-08-21T06:41:22.527Z,16.34
2022-08-21T06:43:55.457Z,16.41
2022-08-21T06:46:25.532Z,16.56
2022-08-21T06:48:54.341Z,16.55
2022-08-21T06:51:22.781Z,16.66
2022-08-21T06:53:53.306Z,16.86
2022-08-21T06:56:21.895Z,16.99
2022-08-21T06:58:51.322Z,17.09
2022-08-21T07:01:20.031Z,17.08
2022-08-21T07:03:56.699Z,17.24
2022-08-21T07:06:31.508Z,17.43
2022-08-21T07:09:05.910Z,17.41
2022-08-21T07:11:38.477Z,17.38
2022-08-21T07:14:12.563Z,17.49
2022-08-21T07:16:52.491Z,17.65
2022-08-21T07:19:22.658Z,17.84
2022-08-21T07:21:50.938Z,18.04
2022-08-21T07:24:19.456Z,17.92
2022-08-21T07:26:47.840Z,18.08
2022-08-21T07:29:18.140Z,18.34
2022-08-21T07:31:51.327Z,18.69
2022-08-21T07:34:24.794Z,18.78
2022-08-21T07:36:55.877Z,18.92
2022-08-21T07:39:26.612Z,18.98
2022-08-21T07:41:54.974Z,19.12
2022-08-21T07:44:23.251Z,19.01
2022-08-21T07:46:51.891Z,19.01
2022-08-21T07:49:22.366Z,19.27
2022-08-21T07:51:52.913Z,19.41
2022-08-21T07:54:25.440Z,19.43
2022-08-21T07:57:05.180Z,19.43
2022-08-21T07:59:33.588Z,19.58
2022-08-21T08:02:04.984Z,19.61
2022-08-21T08:04:33.354Z,19.61
2022-08-21T08:07:04.402Z,19.55
2022-08-21T08:09:33.195Z,19.46
2022-08-21T08:12:01.550Z,19.53
2022-08-21T08:14:31.635Z,19.52
2022-08-21T08:17:06.030Z,19.42
2022-08-21T08:19:34.390Z,19.73
2022-08-21T08:22:15.323Z,19.82
2022-08-21T08:24:43.713Z,20.15
2022-08-21T08:27:15.321Z,20.31
2022-08-21T08:29:43.731Z,20.50
2022-08-21T08:32:17.087Z,20.57
2022-08-21T08:34:51.082Z,20.63
2022-08-21T08:37:22.010Z,20.45
2022-08-21T08:39:55.508Z,20.68
2022-08-21T08:42:32.805Z,20.56
2022-08-21T08:45:08.699Z,20.62
2022-08-21T08:47:47.607Z,20.74
2022-08-21T08:50:27.152Z,20.63
2022-08-21T08:53:01.624Z,20.42
2022-08-21T08:55:37.132Z,20.63
2022-08-21T08:58:09.434Z,21.02
2022-08-21T09:00:38.095Z,21.24
2022-08-21T09:03:09.465Z,21.33
2022-08-21T09:05:45.074Z,21.48
2022-08-21T09:08:52.173Z,22.19
2022-08-21T09:11:29.546Z,22.05
2022-08-21T09:14:07.435Z,21.70
2022-08-21T09:16:48.096Z,21.64
2022-08-21T09:19:34.724Z,21.68
2022-08-21T09:22:11.173Z,21.61
2022-08-21T09:24:52.155Z,21.64
2022-08-21T09:27:23.195Z,21.54
2022-08-21T09:29:58.655Z,21.09
2022-08-21T09:32:37.068Z,20.86
2022-08-21T09:35:10.556Z,20.53
2022-08-21T09:37:50.947Z,20.34
2022-08-21T09:40:37.961Z,20.27
2022-08-21T09:43:18.129Z,20.36
2022-08-21T09:45:47.627Z,20.41
2022-08-21T09:48:21.533Z,20.81
2022-08-21T09:50:51.477Z,21.37
2022-08-21T09:53:24.417Z,21.62
2022-08-21T09:56:13.875Z,21.89
2022-08-21T09:58:45.712Z,21.97
2022-08-21T10:01:17.580Z,22.17
2022-08-21T10:03:46.589Z,21.57
2022-08-21T10:06:26.098Z,21.57
2022-08-21T10:09:07.827Z,21.35
2022-08-21T10:11:38.655Z,21.74
2022-08-21T10:14:15.918Z,21.99
2022-08-21T10:16:55.583Z,22.05
2022-08-21T10:19:35.702Z,22.34
2022-08-21T10:22:12.789Z,22.35
2022-08-21T10:24:48.979Z,21.89
2022-08-21T10:27:33.060Z,22.02
2022-08-21T10:30:06.275Z,21.92
2022-08-21T10:33:06.912Z,22.21
2022-08-21T10:35:39.844Z,22.90
2022-08-21T10:38:52.764Z,23.18
2022-08-21T10:41:39.359Z,22.55
2022-08-21T10:44:32.455Z,22.35
2022-08-21T10:47:11.791Z,22.52
2022-08-21T10:49:47.188Z,22.66
2022-08-21T10:53:01.680Z,22.99
2022-08-21T10:55:37.516Z,22.77
2022-08-21T10:58:14.742Z,22.75
2022-08-21T11:00:49.394Z,22.49
2022-08-21T11:03:22.454Z,22.82
2022-08-21T11:06:00.055Z,23.09
2022-08-21T11:08:34.067Z,22.97
2022-08-21T11:11:08.832Z,23.05
2022-08-21T11:13:45.247Z,23.43
2022-08-21T11:16:26.175Z,23.90
2022-08-21T11:19:02.609Z,24.24
2022-08-21T11:21:38.371Z,24.71
2022-08-21T11:24:21.871Z,24.87
2022-08-21T11:26:57.146Z,24.69
2022-08-21T11:29:31.008Z,25.29
2022-08-21T11:32:27.926Z,24.90
2022-08-21T11:35:05.199Z,25.14
2022-08-21T11:37:51.920Z,25.13
2022-08-21T11:40:42.974Z,25.71
2022-08-21T11:43:17.948Z,25.20
2022-08-21T11:45:50.937Z,24.89
2022-08-21T11:48:35.722Z,25.42
2022-08-21T11:51:09.169Z,26.01
2022-08-21T11:53:42.518Z,25.77
2022-08-21T11:56:17.307Z,26.25
2022-08-21T11:58:51.230Z,26.25
2022-08-21T12:01:26.765Z,25.25
2022-08-21T12:03:59.318Z,24.99
2022-08-21T12:06:34.117Z,25.19
2022-08-21T12:09:06.345Z,25.18
2022-08-21T12:11:48.183Z,25.68
2022-08-21T12:14:20.994Z,25.07
2022-08-21T12:16:51.401Z,24.74
2022-08-21T12:19:33.319Z,24.47
2022-08-21T12:22:11.454Z,24.65
2022-08-21T12:24:42.776Z,24.01
2022-08-21T12:27:26.656Z,23.76
2022-08-21T12:30:00.733Z,23.76
2022-08-21T12:32:32.099Z,23.55
2022-08-21T12:35:25.167Z,23.36
2022-08-21T12:38:03.917Z,23.71
2022-08-21T12:40:42.494Z,24.46
2022-08-21T12:43:18.888Z,24.50
2022-08-21T12:45:50.034Z,24.03
2022-08-21T12:48:25.044Z,24.02
2022-08-21T12:50:59.275Z,25.07
2022-08-21T12:53:32.570Z,25.03
2022-08-21T12:56:04.844Z,25.17
2022-08-21T12:58:33.709Z,25.15
2022-08-21T13:01:05.717Z,24.14
2022-08-21T13:03:38.513Z,23.96
2022-08-21T13:06:16.111Z,23.32
2022-08-21T13:08:47.461Z,23.24
2022-08-21T13:11:32.742Z,23.26
2022-08-21T13:14:05.270Z,23.45
2022-08-21T13:16:39.213Z,23.60
2022-08-21T13:19:13.714Z,23.75
2022-08-21T13:21:48.156Z,23.70
2022-08-21T13:27:27.094Z,23.76
2022-08-21T13:30:09.466Z,23.68
2022-08-21T13:32:42.348Z,23.53
2022-08-21T13:35:16.744Z,23.57
2022-08-21T13:37:50.897Z,23.57
2022-08-21T13:40:22.733Z,23.39
2022-08-21T13:42:51.820Z,23.97
2022-08-21T13:45:27.188Z,24.78
2022-08-21T13:48:00.123Z,25.24
2022-08-21T13:50:31.736Z,25.60
2022-08-21T13:53:05.010Z,25.38
2022-08-21T13:55:38.656Z,26.34
2022-08-21T13:58:08.463Z,26.30
2022-08-21T14:00:45.653Z,25.89
2022-08-21T14:03:29.352Z,25.09
2022-08-21T14:06:01.730Z,24.53
2022-08-21T14:08:35.400Z,24.54
2022-08-21T14:11:07.033Z,24.65
2022-08-21T14:13:40.355Z,24.68
2022-08-21T14:16:17.942Z,25.06
2022-08-21T14:18:54.957Z,26.17
2022-08-21T14:21:32.093Z,26.42
2022-08-21T14:24:14.640Z,26.13
2022-08-21T14:26:51.717Z,25.77
2022-08-21T14:29:27.028Z,25.39
2022-08-21T14:32:21.407Z,24.95
2022-08-21T14:34:54.822Z,24.55
2022-08-21T14:37:28.249Z,24.18
2022-08-21T14:39:58.195Z,24.00
2022-08-21T14:42:33.223Z,24.01
2022-08-21T14:45:07.920Z,24.01
2022-08-21T14:47:37.831Z,24.00
2022-08-21T14:50:06.663Z,23.89
2022-08-21T14:52:37.784Z,24.03
2022-08-21T14:55:11.750Z,23.94
2022-08-21T14:57:40.459Z,23.87
2022-08-21T15:00:12.928Z,23.73
2022-08-21T15:02:41.286Z,23.79
2022-08-21T15:05:12.322Z,23.83
2022-08-21T15:07:43.395Z,23.90
2022-08-21T15:10:17.023Z,23.88
2022-08-21T15:12:45.322Z,23.77
2022-08-21T15:15:17.729Z,23.85
2022-08-21T15:17:48.573Z,23.66
2022-08-21T15:20:20.150Z,23.61
2022-08-21T15:22:50.391Z,23.41
2022-08-21T15:25:20.105Z,23.51
2022-08-21T15:27:49.775Z,23.35
2022-08-21T15:30:18.189Z,23.41
2022-08-21T15:32:46.467Z,23.30
2022-08-21T15:35:14.814Z,23.35
2022-08-21T15:37:43.448Z,23.24
2022-08-21T15:40:14.231Z,23.03
2022-08-21T15:42:47.551Z,22.77
2022-08-21T15:45:15.969Z,22.46
2022-08-21T15:47:46.826Z,22.46
2022-08-21T15:50:15.714Z,22.33
2022-08-21T15:52:44.091Z,22.28
2022-08-21T15:55:13.097Z,22.33
2022-08-21T15:57:57.907Z,22.33
2022-08-21T16:00:30.946Z,22.32
2022-08-21T16:03:02.596Z,22.40
2022-08-21T16:05:34.018Z,22.34
2022-08-21T16:08:02.291Z,22.50
2022-08-21T16:10:34.065Z,22.61
2022-08-21T16:13:09.657Z,22.64
2022-08-21T16:15:38.179Z,22.75
2022-08-21T16:18:06.951Z,22.94
2022-08-21T16:20:35.839Z,23.53
2022-08-21T16:23:06.110Z,23.28
2022-08-21T16:25:40.576Z,23.07
2022-08-21T16:28:15.447Z,23.14
2022-08-21T16:30:45.719Z,23.29
2022-08-21T16:33:22.851Z,23.89
2022-08-21T16:35:51.241Z,23.83
2022-08-21T16:38:19.800Z,23.86
2022-08-21T16:40:51.315Z,23.60
2022-08-21T16:43:25.784Z,23.59
2022-08-21T16:45:55.007Z,23.62
2022-08-21T16:48:24.195Z,23.57
2022-08-21T16:50:52.745Z,23.21
2022-08-21T16:53:23.549Z,23.08
2022-08-21T16:55:57.384Z,22.82
2022-08-21T16:58:32.660Z,22.75
2022-08-21T17:01:06.685Z,22.56
2022-08-21T17:03:39.124Z,22.53
2022-08-21T17:06:11.326Z,22.47
2022-08-21T17:08:44.764Z,22.36
2022-08-21T17:11:36.539Z,22.18
2022-08-21T17:14:13.763Z,22.02
2022-08-21T17:16:46.574Z,21.89
2022-08-21T17:19:15.923Z,21.84
2022-08-21T17:21:44.441Z,21.69
2022-08-21T17:24:15.545Z,21.60
2022-08-21T17:26:47.364Z,21.39
2022-08-21T17:29:17.316Z,21.35
2022-08-21T17:31:48.042Z,21.25
2022-08-21T17:34:16.921Z,21.16
2022-08-21T17:36:45.210Z,21.14
2022-08-21T17:39:22.123Z,21.13
2022-08-21T17:41:52.915Z,21.05
2022-08-21T17:44:28.084Z,21.01
2022-08-21T17:46:56.512Z,20.95
2022-08-21T17:49:25.460Z,20.94
2022-08-21T17:51:57.088Z,20.84
2022-08-21T17:54:25.975Z,20.80
2022-08-21T17:57:01.132Z,20.76
2022-08-21T17:59:33.829Z,20.73
2022-08-21T18:02:02.762Z,20.66
2022-08-21T18:04:33.629Z,20.64
2022-08-21T18:07:01.917Z,20.55
2022-08-21T18:09:30.325Z,20.55
2022-08-21T18:12:02.192Z,20.43
2022-08-21T18:14:37.997Z,20.36
2022-08-21T18:17:10.004Z,20.29
2022-08-21T18:19:38.754Z,20.29
2022-08-21T18:22:18.789Z,20.19
2022-08-21T18:24:47.159Z,20.12
2022-08-21T18:27:16.221Z,20.10
2022-08-21T18:29:47.445Z,20.06
2022-08-21T18:32:31.284Z,20.09
2022-08-21T18:35:03.894Z,20.09
2022-08-21T18:37:35.035Z,19.97
2022-08-21T18:40:03.602Z,19.94
2022-08-21T18:42:36.500Z,19.87
2022-08-21T18:45:11.855Z,19.84
2022-08-21T18:47:44.125Z,19.72
2022-08-21T18:50:14.922Z,19.70
2022-08-21T18:52:53.516Z,19.69
2022-08-21T18:55:24.556Z,19.68
2022-08-21T18:57:53.752Z,19.75
2022-08-21T19:00:26.354Z,19.72
2022-08-21T19:02:54.657Z,19.67
2022-08-21T19:05:24.180Z,19.67
2022-08-21T19:07:55.090Z,19.62
2022-08-21T19:10:28.361Z,19.59
2022-08-21T19:13:18.904Z,19.54
2022-08-21T19:15:53.496Z,19.53
2022-08-21T19:18:29.701Z,19.56
2022-08-21T19:20:58.432Z,19.51
2022-08-21T19:23:30.537Z,19.48
2022-08-21T19:26:02.396Z,19.51
2022-08-21T19:28:36.377Z,19.44
2022-08-21T19:31:11.851Z,19.48
2022-08-21T19:33:44.258Z,19.46
2022-08-21T19:36:14.253Z,19.46
2022-08-21T19:38:45.472Z,19.42
2022-08-21T19:41:19.576Z,19.40
2022-08-21T19:43:50.909Z,19.42
2022-08-21T19:46:25.347Z,19.36
2022-08-21T19:48:55.876Z,19.38
2022-08-21T19:51:24.698Z,19.40
2022-08-21T19:53:56.984Z,19.37
2022-08-21T19:56:30.115Z,19.33
2022-08-21T19:58:58.909Z,19.33
2022-08-21T20:07:16.724Z,19.28
2022-08-21T20:09:54.670Z,19.25
2022-08-21T20:12:25.821Z,19.23
2022-08-21T20:14:57.781Z,19.15
2022-08-21T20:17:30.804Z,19.11
2022-08-21T20:20:04.907Z,19.07
2022-08-21T20:22:35.253Z,19.13
2022-08-21T20:25:06.023Z,19.10
2022-08-21T20:27:40.381Z,19.11
2022-08-21T20:30:10.886Z,19.07
2022-08-21T20:32:45.657Z,19.09
2022-08-21T20:35:16.637Z,19.09
2022-08-21T20:37:45.240Z,19.07
2022-08-21T20:43:17.076Z,19.08
2022-08-21T20:45:45.599Z,19.00
2022-08-21T20:48:23.509Z,19.01
2022-08-21T20:50:56.893Z,19.01
2022-08-21T20:53:42.880Z,19.01
2022-08-21T20:56:19.066Z,18.99
2022-08-21T20:58:58.735Z,18.99
2022-08-21T21:01:32.757Z,18.98
2022-08-21T21:04:10.265Z,18.96
2022-08-21T21:09:43.063Z,19.05
2022-08-21T21:12:27.864Z,19.05
2022-08-21T21:15:00.259Z,19.07
2022-08-21T21:17:34.805Z,19.13
2022-08-21T21:20:17.742Z,19.09
2022-08-21T21:22:52.313Z,19.10
2022-08-21T21:28:27.345Z,19.10
2022-08-21T21:31:03.868Z,19.09
2022-08-21T21:33:35.346Z,19.06
2022-08-21T21:39:13.357Z,19.06
2022-08-21T21:41:54.250Z,19.02
2022-08-21T21:44:36.480Z,18.99
2022-08-21T21:47:15.630Z,19.00
2022-08-21T21:49:59.924Z,18.92
2022-08-21T21:52:54.611Z,18.89
2022-08-21T21:55:39.783Z,18.83
2022-08-21T21:58:39.677Z,18.77
2022-08-21T22:01:14.357Z,18.78
2022-08-21T22:03:52.494Z,18.82
2022-08-21T22:06:30.615Z,18.86
2022-08-21T22:09:09.346Z,18.77
2022-08-21T22:11:55.480Z,18.72
2022-08-21T22:14:28.741Z,18.72
2022-08-21T22:17:05.488Z,18.72
2022-08-21T22:19:45.243Z,18.77
2022-08-21T22:22:17.475Z,18.76
2022-08-21T22:24:51.732Z,18.66
2022-08-21T22:27:29.779Z,18.63
2022-08-21T22:30:04.782Z,18.56
2022-08-21T22:32:38.608Z,18.57
2022-08-21T22:35:15.541Z,18.61
2022-08-21T22:37:50.805Z,18.57
2022-08-21T22:40:27.424Z,18.56
2022-08-21T22:43:02.778Z,18.55
2022-08-21T22:45:32.720Z,18.58
2022-08-21T22:48:14.572Z,18.62
2022-08-21T22:51:00.474Z,18.61
2022-08-21T22:53:33.302Z,18.66
2022-08-21T22:56:06.085Z,18.69
2022-08-21T22:58:37.956Z,18.65
2022-08-21T23:01:29.537Z,18.50
2022-08-21T23:04:02.431Z,18.40
2022-08-21T23:06:38.172Z,18.28
2022-08-21T23:09:23.205Z,18.17
2022-08-21T23:11:55.586Z,18.11
2022-08-21T23:14:26.412Z,18.13
2022-08-21T23:17:03.100Z,18.14
2022-08-21T23:19:49.316Z,18.12
2022-08-21T23:22:36.068Z,18.17
2022-08-21T23:25:27.050Z,18.25
2022-08-21T23:28:06.208Z,18.38
2022-08-21T23:30:49.846Z,18.41
2022-08-21T23:33:38.673Z,18.53
2022-08-21T23:36:41.186Z,18.53
2022-08-21T23:39:25.486Z,18.52
2022-08-21T23:41:59.536Z,18.50
2022-08-21T23:44:47.803Z,18.50
2022-08-21T23:47:34.604Z,18.55
2022-08-21T23:50:14.012Z,18.53
2022-08-21T23:52:58.162Z,18.57
2022-08-21T23:55:43.819Z,18.66
2022-08-21T23:58:27.907Z,18.70
